createdAt,value
2023-01-30T00:01:17.816Z,26.02
2023-01-30T00:03:45.054Z,26.83
2023-01-30T00:06:11.958Z,26.17
2023-01-30T00:08:38.809Z,26.63
2023-01-30T00:11:06.958Z,27.50
2023-01-30T00:13:33.782Z,34.88
2023-01-30T00:16:00.443Z,28.10
2023-01-30T00:18:27.221Z,28.20
2023-01-30T00:20:58.855Z,29.40
2023-01-30T00:23:26.326Z,26.15
2023-01-30T00:25:53.385Z,34.75
2023-01-30T00:28:19.956Z,27.83
2023-01-30T00:30:51.179Z,29.60
2023-01-30T00:33:18.828Z,25.27
2023-01-30T00:35:46.923Z,23.73
2023-01-30T00:38:14.075Z,25.42
2023-01-30T00:40:41.818Z,25.35
2023-01-30T00:43:33.678Z,27.25
2023-01-30T00:46:21.580Z,29.13
2023-01-30T00:48:48.325Z,27.05
2023-01-30T00:51:14.912Z,25.15
2023-01-30T00:53:41.499Z,24.38
2023-01-30T00:56:08.124Z,30.70
2023-01-30T00:58:35.389Z,28.92
2023-01-30T01:01:03.138Z,23.50
2023-01-30T01:03:29.767Z,21.52
2023-01-30T01:05:56.295Z,25.48
2023-01-30T01:08:22.903Z,22.83
2023-01-30T01:10:49.508Z,27.67
2023-01-30T01:13:16.177Z,28.50
2023-01-30T01:15:42.686Z,25.40
2023-01-30T01:18:09.498Z,21.30
2023-01-30T01:20:36.064Z,29.48
2023-01-30T01:23:03.285Z,24.58
2023-01-30T01:25:29.857Z,21.73
2023-01-30T01:27:56.595Z,18.70
2023-01-30T01:30:23.909Z,19.52
2023-01-30T01:32:50.513Z,23.48
2023-01-30T01:35:17.378Z,21.20
2023-01-30T01:37:44.169Z,23.67
2023-01-30T01:40:36.531Z,26.77
2023-01-30T01:43:14.927Z,24.02
2023-01-30T01:45:42.234Z,24.25
2023-01-30T01:48:32.477Z,26.42
2023-01-30T01:51:05.674Z,20.80
2023-01-30T01:53:42.695Z,22.90
2023-01-30T01:56:12.444Z,26.02
2023-01-30T01:59:03.069Z,20.25
2023-01-30T02:01:30.136Z,20.65
2023-01-30T02:04:01.898Z,18.77
2023-01-30T02:06:29.731Z,19.92
2023-01-30T02:09:02.467Z,29.73
2023-01-30T02:11:53.286Z,26.88
2023-01-30T02:14:21.997Z,21.05
2023-01-30T02:16:50.648Z,19.42
2023-01-30T02:19:20.224Z,27.08
2023-01-30T02:22:09.467Z,25.75
2023-01-30T02:25:07.980Z,23.50
2023-01-30T02:28:00.298Z,25.15
2023-01-30T02:30:52.225Z,25.52
2023-01-30T02:33:36.109Z,27.58
2023-01-30T02:36:16.537Z,22.60
2023-01-30T02:39:12.029Z,23.92
2023-01-30T02:41:55.389Z,23.10
2023-01-30T02:44:37.292Z,24.55
2023-01-30T02:47:18.970Z,25.70
2023-01-30T02:49:54.637Z,28.92
2023-01-30T02:52:22.495Z,23.75
2023-01-30T02:54:49.015Z,27.08
2023-01-30T02:57:22.257Z,29.10
2023-01-30T02:59:56.927Z,27.55
2023-01-30T03:02:45.336Z,24.25
2023-01-30T03:05:49.404Z,22.15
2023-01-30T03:08:33.836Z,20.30
2023-01-30T03:11:05.531Z,21.52
2023-01-30T03:13:49.211Z,30.50
2023-01-30T03:16:35.242Z,22.83
2023-01-30T03:19:03.897Z,21.30
2023-01-30T03:21:31.727Z,25.60
2023-01-30T03:23:58.675Z,29.45
2023-01-30T03:26:30.994Z,22.95
2023-01-30T03:28:58.279Z,25.25
2023-01-30T03:31:24.949Z,29.35
2023-01-30T03:33:51.552Z,22.55
2023-01-30T03:36:18.364Z,24.88
2023-01-30T03:38:45.146Z,17.80
2023-01-30T03:41:11.785Z,23.70
2023-01-30T03:43:39.244Z,21.30
2023-01-30T03:46:06.155Z,25.63
2023-01-30T03:48:32.719Z,20.95
2023-01-30T03:50:59.418Z,28.02
2023-01-30T03:53:26.031Z,25.25
2023-01-30T03:55:53.349Z,19.00
2023-01-30T03:58:25.218Z,24.80
2023-01-30T04:00:52.140Z,18.60
2023-01-30T04:03:18.744Z,23.23
2023-01-30T04:05:45.436Z,16.30
2023-01-30T04:08:12.639Z,24.52
2023-01-30T04:10:39.135Z,17.00
2023-01-30T04:13:06.148Z,21.02
2023-01-30T04:15:33.284Z,19.23
2023-01-30T04:18:18.590Z,30.30
2023-01-30T04:21:02.129Z,21.40
2023-01-30T04:23:34.751Z,24.40
2023-01-30T04:26:02.228Z,16.50
2023-01-30T04:28:28.863Z,12.93
2023-01-30T04:30:56.130Z,14.93
2023-01-30T04:33:43.604Z,18.95
2023-01-30T04:36:12.636Z,16.88
2023-01-30T04:38:40.259Z,22.70
2023-01-30T04:41:07.852Z,20.95
2023-01-30T04:43:37.610Z,19.75
2023-01-30T04:46:25.776Z,16.13
2023-01-30T04:48:52.648Z,17.50
2023-01-30T04:51:19.474Z,16.75
2023-01-30T04:53:47.181Z,14.10
2023-01-30T04:56:13.794Z,15.32
2023-01-30T04:58:40.631Z,13.27
2023-01-30T05:01:35.019Z,14.75
2023-01-30T05:04:02.903Z,13.05
2023-01-30T05:06:30.865Z,12.35
2023-01-30T05:08:58.477Z,12.23
2023-01-30T05:11:27.341Z,10.82
2023-01-30T05:13:54.300Z,14.90
2023-01-30T05:16:22.441Z,16.45
2023-01-30T05:18:49.593Z,12.38
2023-01-30T05:21:19.558Z,8.77
2023-01-30T05:23:46.172Z,13.32
2023-01-30T05:26:13.964Z,12.38
2023-01-30T05:28:41.465Z,11.00
2023-01-30T05:31:13.535Z,8.50
2023-01-30T05:33:41.225Z,12.80
2023-01-30T05:36:13.743Z,10.15
2023-01-30T05:38:40.347Z,7.90
2023-01-30T05:41:08.288Z,9.80
2023-01-30T05:43:35.318Z,8.20
2023-01-30T05:46:05.567Z,8.80
2023-01-30T05:48:33.351Z,11.52
2023-01-30T05:51:00.033Z,10.43
2023-01-30T05:53:29.382Z,11.63
2023-01-30T05:55:57.800Z,7.40
2023-01-30T05:58:24.937Z,9.38
2023-01-30T06:00:51.756Z,10.27
2023-01-30T06:03:18.655Z,7.78
2023-01-30T06:05:45.451Z,9.30
2023-01-30T06:08:12.410Z,8.70
2023-01-30T06:10:39.009Z,7.95
2023-01-30T06:13:05.634Z,9.65
2023-01-30T06:15:33.067Z,8.70
2023-01-30T06:17:59.709Z,9.45
2023-01-30T06:20:26.225Z,8.73
2023-01-30T06:22:52.778Z,10.68
2023-01-30T06:25:19.777Z,8.10
2023-01-30T06:27:46.683Z,14.00
2023-01-30T06:30:13.620Z,9.52
2023-01-30T06:32:40.288Z,9.93
2023-01-30T06:35:07.390Z,9.23
2023-01-30T06:37:34.019Z,9.43
2023-01-30T06:40:00.624Z,8.20
2023-01-30T06:42:27.165Z,10.13
2023-01-30T06:44:53.696Z,10.50
2023-01-30T06:47:20.370Z,8.00
2023-01-30T06:49:49.080Z,6.25
2023-01-30T06:52:15.611Z,9.10
2023-01-30T06:54:42.139Z,11.68
2023-01-30T06:57:08.827Z,10.23
2023-01-30T06:59:35.377Z,5.75
2023-01-30T07:02:02.191Z,6.47
2023-01-30T07:04:29.027Z,6.13
2023-01-30T07:06:55.729Z,8.90
2023-01-30T07:09:22.261Z,10.27
2023-01-30T07:11:50.252Z,10.48
2023-01-30T07:14:16.793Z,6.18
2023-01-30T07:16:43.408Z,8.85
2023-01-30T07:19:10.201Z,5.38
2023-01-30T07:21:36.800Z,8.18
2023-01-30T07:24:03.501Z,6.63
2023-01-30T07:26:31.199Z,6.40
2023-01-30T07:28:58.219Z,8.63
2023-01-30T07:31:24.924Z,8.52
2023-01-30T07:33:51.570Z,8.75
2023-01-30T07:36:18.244Z,4.03
2023-01-30T07:38:44.797Z,5.40
2023-01-30T07:41:11.422Z,11.35
2023-01-30T07:43:37.994Z,11.05
2023-01-30T07:46:04.736Z,5.20
2023-01-30T07:48:31.349Z,4.78
2023-01-30T07:50:57.966Z,4.57
2023-01-30T07:53:24.807Z,8.07
2023-01-30T07:55:51.643Z,9.32
2023-01-30T07:58:18.319Z,7.25
2023-01-30T08:00:45.216Z,3.63
2023-01-30T08:03:16.876Z,9.23
2023-01-30T08:05:46.808Z,6.07
2023-01-30T08:08:13.720Z,5.85
2023-01-30T08:10:40.219Z,2.60
2023-01-30T08:13:06.816Z,9.65
2023-01-30T08:15:33.458Z,8.18
2023-01-30T08:18:00.288Z,12.25
2023-01-30T08:20:28.228Z,2.60
2023-01-30T08:22:55.206Z,8.32
2023-01-30T08:25:22.833Z,10.52
2023-01-30T08:27:49.783Z,5.35
2023-01-30T08:30:17.101Z,4.93
2023-01-30T08:32:44.047Z,6.80
2023-01-30T08:35:10.899Z,8.23
2023-01-30T08:37:40.060Z,9.23
2023-01-30T08:40:07.728Z,7.00
2023-01-30T08:42:34.338Z,6.15
2023-01-30T08:45:01.009Z,5.13
2023-01-30T08:47:27.610Z,5.90
2023-01-30T08:49:54.292Z,8.70
2023-01-30T08:52:20.942Z,5.38
2023-01-30T08:54:47.492Z,7.78
2023-01-30T08:57:15.338Z,10.45
2023-01-30T08:59:41.840Z,4.60
2023-01-30T09:02:12.661Z,10.68
2023-01-30T09:04:40.077Z,7.70
2023-01-30T09:07:06.590Z,8.93
2023-01-30T09:09:33.294Z,10.00
2023-01-30T09:11:59.762Z,4.63
2023-01-30T09:14:26.460Z,8.70
2023-01-30T09:16:55.968Z,9.23
2023-01-30T09:19:24.131Z,6.22
2023-01-30T09:21:51.744Z,9.20
2023-01-30T09:24:19.379Z,9.90
2023-01-30T09:26:46.148Z,9.02
2023-01-30T09:29:12.915Z,6.32
2023-01-30T09:31:39.681Z,12.35
2023-01-30T09:34:07.800Z,5.72
2023-01-30T09:36:34.313Z,11.00
2023-01-30T09:39:00.879Z,9.07
2023-01-30T09:41:42.704Z,5.28
2023-01-30T09:44:12.346Z,11.05
2023-01-30T09:47:11.922Z,11.43
2023-01-30T09:49:56.552Z,9.48
2023-01-30T09:52:51.345Z,8.48
2023-01-30T09:55:32.756Z,4.75
2023-01-30T09:58:00.772Z,8.40
2023-01-30T10:00:39.424Z,7.47
2023-01-30T10:03:09.543Z,9.98
2023-01-30T10:05:52.913Z,10.38
2023-01-30T10:08:34.835Z,5.95
2023-01-30T10:11:19.579Z,8.32
2023-01-30T10:14:13.342Z,6.50
2023-01-30T10:17:07.261Z,4.88
2023-01-30T10:19:44.903Z,13.48
2023-01-30T10:22:36.268Z,10.10
2023-01-30T10:25:13.894Z,6.68
2023-01-30T10:27:51.431Z,4.65
2023-01-30T10:30:18.948Z,5.85
2023-01-30T10:32:56.888Z,6.07
2023-01-30T10:35:27.450Z,3.95
2023-01-30T10:38:16.250Z,5.28
2023-01-30T10:40:49.152Z,5.97
2023-01-30T10:43:27.584Z,11.07
2023-01-30T10:46:21.843Z,10.18
2023-01-30T10:49:01.513Z,3.50
2023-01-30T10:51:55.453Z,10.75
2023-01-30T10:54:26.430Z,8.82
2023-01-30T10:56:58.850Z,7.47
2023-01-30T10:59:43.059Z,7.40
2023-01-30T11:02:43.310Z,10.57
2023-01-30T11:05:16.424Z,6.35
2023-01-30T11:07:45.888Z,10.07
2023-01-30T11:10:17.293Z,11.65
2023-01-30T11:12:43.976Z,10.15
2023-01-30T11:15:11.790Z,6.50
2023-01-30T11:17:43.066Z,10.20
2023-01-30T11:20:22.440Z,2.80
2023-01-30T11:23:00.099Z,9.13
2023-01-30T11:25:26.759Z,5.82
2023-01-30T11:28:01.899Z,8.13
2023-01-30T11:30:35.496Z,8.27
2023-01-30T11:33:13.259Z,6.00
2023-01-30T11:35:54.200Z,12.30
2023-01-30T11:38:24.519Z,11.73
2023-01-30T11:41:02.083Z,10.77
2023-01-30T11:43:28.829Z,7.22
2023-01-30T11:45:55.993Z,7.65
2023-01-30T11:49:01.271Z,5.22
2023-01-30T11:51:19.296Z,8.65
2023-01-30T11:53:50.733Z,9.85
2023-01-30T11:56:24.343Z,15.77
2023-01-30T11:59:04.763Z,6.35
2023-01-30T12:01:34.820Z,7.93
2023-01-30T12:04:06.393Z,11.82
2023-01-30T12:06:37.085Z,2.65
2023-01-30T12:09:04.424Z,8.73
2023-01-30T12:11:36.991Z,9.75
2023-01-30T12:14:26.934Z,7.03
2023-01-30T12:17:21.351Z,7.20
2023-01-30T12:20:16.122Z,5.13
2023-01-30T12:22:46.428Z,16.55
2023-01-30T12:25:15.897Z,2.15
2023-01-30T12:27:54.255Z,6.35
2023-01-30T12:30:56.372Z,10.75
2023-01-30T12:33:28.902Z,7.00
2023-01-30T12:36:07.766Z,6.63
2023-01-30T12:38:52.932Z,9.73
2023-01-30T12:41:52.567Z,5.45
2023-01-30T12:44:41.850Z,4.57
2023-01-30T12:47:41.985Z,10.55
2023-01-30T12:50:29.758Z,4.95
2023-01-30T12:53:17.843Z,5.65
2023-01-30T12:56:12.246Z,4.57
2023-01-30T12:58:45.835Z,9.50
2023-01-30T13:01:37.948Z,4.43
2023-01-30T13:05:01.761Z,5.97
2023-01-30T13:07:31.755Z,7.07
2023-01-30T13:10:27.871Z,7.63
2023-01-30T13:13:21.544Z,9.77
2023-01-30T13:16:06.515Z,5.70
2023-01-30T13:18:42.782Z,7.43
2023-01-30T13:21:46.803Z,6.10
2023-01-30T13:24:18.538Z,4.25
2023-01-30T13:26:48.136Z,7.97
2023-01-30T13:29:31.200Z,6.97
2023-01-30T13:32:02.367Z,7.03
2023-01-30T13:34:44.431Z,8.45
2023-01-30T13:37:13.612Z,8.52
2023-01-30T13:40:23.838Z,5.82
2023-01-30T13:42:58.152Z,13.82
2023-01-30T13:45:35.411Z,5.10
2023-01-30T13:48:14.203Z,8.20
2023-01-30T13:51:08.555Z,5.90
2023-01-30T13:53:45.981Z,3.67
2023-01-30T13:56:41.438Z,8.13
2023-01-30T13:59:30.292Z,8.38
2023-01-30T14:02:01.975Z,2.30
2023-01-30T14:04:40.928Z,5.82
2023-01-30T14:07:41.705Z,11.32
2023-01-30T14:10:20.952Z,6.13
2023-01-30T14:12:50.883Z,17.52
2023-01-30T14:15:20.628Z,7.57
2023-01-30T14:18:14.462Z,5.45
2023-01-30T14:20:45.719Z,5.20
2023-01-30T14:23:53.396Z,16.92
2023-01-30T14:26:48.747Z,7.05
2023-01-30T14:29:42.973Z,7.70
2023-01-30T14:32:13.040Z,8.15
2023-01-30T14:34:43.167Z,4.60
2023-01-30T14:37:41.943Z,11.75
2023-01-30T14:40:20.768Z,13.02
2023-01-30T14:43:11.972Z,5.47
2023-01-30T14:45:56.091Z,8.32
2023-01-30T14:48:51.798Z,6.07
2023-01-30T14:51:26.045Z,2.72
2023-01-30T14:54:04.734Z,7.63
2023-01-30T14:56:39.453Z,11.90
2023-01-30T14:59:37.760Z,6.30
2023-01-30T15:02:12.260Z,6.72
2023-01-30T15:04:44.519Z,7.90
2023-01-30T15:07:30.166Z,6.45
2023-01-30T15:10:05.403Z,9.82
2023-01-30T15:13:00.772Z,9.43
2023-01-30T15:15:48.055Z,9.00
2023-01-30T15:18:17.321Z,9.65
2023-01-30T15:20:55.696Z,11.82
2023-01-30T15:23:44.180Z,8.45
2023-01-30T15:26:38.558Z,5.65
2023-01-30T15:29:30.208Z,15.25
2023-01-30T15:32:01.881Z,6.55
2023-01-30T15:34:30.877Z,2.70
2023-01-30T15:36:57.737Z,3.70
2023-01-30T15:39:26.234Z,10.65
2023-01-30T15:41:57.167Z,13.77
2023-01-30T15:44:29.723Z,5.38
2023-01-30T15:47:33.587Z,15.25
2023-01-30T15:50:06.977Z,6.80
2023-01-30T15:52:48.135Z,11.90
2023-01-30T15:55:26.601Z,7.25
2023-01-30T15:57:58.313Z,6.43
2023-01-30T16:00:28.637Z,3.40
2023-01-30T16:02:56.708Z,5.78
2023-01-30T16:05:26.013Z,10.68
2023-01-30T16:07:54.852Z,8.13
2023-01-30T16:10:29.899Z,3.35
2023-01-30T16:12:58.324Z,7.85
2023-01-30T16:15:46.342Z,11.57
2023-01-30T16:18:41.054Z,16.80
2023-01-30T16:21:15.435Z,4.35
2023-01-30T16:23:52.682Z,8.32
2023-01-30T16:26:21.691Z,7.53
2023-01-30T16:28:50.719Z,9.52
2023-01-30T16:31:18.384Z,11.48
2023-01-30T16:33:51.977Z,5.88
2023-01-30T16:36:21.550Z,6.95
2023-01-30T16:38:50.317Z,6.72
2023-01-30T16:41:31.036Z,3.80
2023-01-30T16:44:19.354Z,5.57
2023-01-30T16:46:51.772Z,9.68
2023-01-30T16:49:23.089Z,8.88
2023-01-30T16:51:58.392Z,4.22
2023-01-30T16:54:28.453Z,9.75
2023-01-30T16:56:58.019Z,6.22
2023-01-30T16:59:33.380Z,5.18
2023-01-30T17:02:02.627Z,6.40
2023-01-30T17:04:31.589Z,14.50
2023-01-30T17:07:01.159Z,6.75
2023-01-30T17:09:33.619Z,8.85
2023-01-30T17:12:00.294Z,2.00
2023-01-30T17:14:31.204Z,2.40
2023-01-30T17:17:08.264Z,7.03
2023-01-30T17:19:35.879Z,10.10
2023-01-30T17:22:08.564Z,13.65
2023-01-30T17:24:36.020Z,9.40
2023-01-30T17:27:04.371Z,7.07
2023-01-30T17:29:42.496Z,8.32
2023-01-30T17:32:14.991Z,7.68
2023-01-30T17:34:41.827Z,6.22
2023-01-30T17:37:15.432Z,7.88
2023-01-30T17:39:42.006Z,9.38
2023-01-30T17:42:13.148Z,8.40
2023-01-30T17:44:40.399Z,3.72
2023-01-30T17:47:10.804Z,8.77
2023-01-30T17:49:37.420Z,5.47
2023-01-30T17:52:04.129Z,3.63
2023-01-30T17:54:30.722Z,8.15
2023-01-30T17:57:03.232Z,5.50
2023-01-30T17:59:31.034Z,7.10
2023-01-30T18:01:57.601Z,6.68
2023-01-30T18:04:24.223Z,3.80
2023-01-30T18:06:55.381Z,9.35
2023-01-30T18:09:23.573Z,4.63
2023-01-30T18:11:51.064Z,10.63
2023-01-30T18:14:18.443Z,5.97
2023-01-30T18:16:45.144Z,18.95
2023-01-30T18:19:14.038Z,7.15
2023-01-30T18:21:44.832Z,3.50
2023-01-30T18:24:12.559Z,17.38
2023-01-30T18:26:40.306Z,9.93
2023-01-30T18:29:09.506Z,5.13
2023-01-30T18:31:36.268Z,11.18
2023-01-30T18:34:02.841Z,15.68
2023-01-30T18:36:29.393Z,5.30
2023-01-30T18:38:56.161Z,7.43
2023-01-30T18:41:24.456Z,3.50
2023-01-30T18:43:56.127Z,9.50
2023-01-30T18:46:23.262Z,7.10
2023-01-30T18:48:49.790Z,12.07
2023-01-30T18:51:18.720Z,8.30
2023-01-30T18:53:47.816Z,9.15
2023-01-30T18:56:20.887Z,8.23
2023-01-30T18:58:52.319Z,9.30
2023-01-30T19:01:21.752Z,4.35
2023-01-30T19:03:48.725Z,7.50
2023-01-30T19:06:18.261Z,9.98
2023-01-30T19:09:53.346Z,8.48
2023-01-30T19:12:38.565Z,6.82
2023-01-30T19:15:05.979Z,12.85
2023-01-30T19:17:32.504Z,6.90
2023-01-30T19:20:01.789Z,9.43
2023-01-30T19:22:28.410Z,2.67
2023-01-30T19:24:55.655Z,12.52
2023-01-30T19:27:22.641Z,9.20
2023-01-30T19:29:50.318Z,10.15
2023-01-30T19:32:16.856Z,5.65
2023-01-30T19:34:43.924Z,13.77
2023-01-30T19:37:10.659Z,19.33
2023-01-30T19:39:37.456Z,8.05
2023-01-30T19:43:10.790Z,6.53
2023-01-30T19:45:42.314Z,8.68
2023-01-30T19:48:10.729Z,7.10
2023-01-30T19:50:37.712Z,3.28
2023-01-30T19:53:04.717Z,6.13
2023-01-30T19:55:35.057Z,8.45
2023-01-30T19:58:01.971Z,10.68
2023-01-30T20:00:28.673Z,10.00
2023-01-30T20:02:56.832Z,13.50
2023-01-30T20:05:23.555Z,6.18
2023-01-30T20:07:50.127Z,5.82
2023-01-30T20:10:17.601Z,7.45
2023-01-30T20:12:45.013Z,4.80
2023-01-30T20:15:11.707Z,6.55
2023-01-30T20:17:38.293Z,9.55
2023-01-30T20:20:06.595Z,13.48
2023-01-30T20:26:48.222Z,16.80
2023-01-30T20:29:17.371Z,12.27
2023-01-30T20:31:43.971Z,7.13
2023-01-30T20:34:12.793Z,7.32
2023-01-30T20:36:39.409Z,10.88
2023-01-30T20:39:07.582Z,10.68
2023-01-30T20:41:36.476Z,13.30
2023-01-30T20:44:04.978Z,10.77
2023-01-30T20:46:40.734Z,13.20
2023-01-30T20:51:37.495Z,10.95
2023-01-30T20:54:07.574Z,10.98
2023-01-30T20:56:37.358Z,10.95
2023-01-30T20:59:06.211Z,10.63
2023-01-30T21:01:33.673Z,8.73
2023-01-30T21:04:06.423Z,10.23
2023-01-30T21:06:41.821Z,9.80
2023-01-30T21:09:18.107Z,5.28
2023-01-30T21:11:45.376Z,4.47
2023-01-30T21:14:12.374Z,8.20
2023-01-30T21:16:39.647Z,17.42
2023-01-30T21:19:09.652Z,5.15
2023-01-30T21:21:40.612Z,3.88
2023-01-30T21:24:14.077Z,7.43
2023-01-30T21:26:44.494Z,9.38
2023-01-30T21:29:12.037Z,10.63
2023-01-30T21:31:40.230Z,13.15
2023-01-30T21:34:08.025Z,5.85
2023-01-30T21:36:34.565Z,6.60
2023-01-30T21:39:19.454Z,11.90
2023-01-30T21:42:05.404Z,9.85
2023-01-30T21:44:37.068Z,7.68
2023-01-30T21:47:05.579Z,15.90
2023-01-30T21:49:32.447Z,10.73
2023-01-30T21:51:58.994Z,9.13
2023-01-30T21:54:25.689Z,3.15
2023-01-30T21:56:52.409Z,7.22
2023-01-30T21:59:18.937Z,15.77
2023-01-30T22:01:46.020Z,5.38
2023-01-30T22:04:14.985Z,7.78
2023-01-30T22:06:42.467Z,6.97
2023-01-30T22:09:12.959Z,3.97
2023-01-30T22:11:39.807Z,11.13
2023-01-30T22:14:06.402Z,10.00
2023-01-30T22:16:33.523Z,11.32
2023-01-30T22:19:02.752Z,5.22
2023-01-30T22:21:32.518Z,2.90
2023-01-30T22:23:59.161Z,6.38
2023-01-30T22:26:26.620Z,8.40
2023-01-30T22:28:55.087Z,7.20
2023-01-30T22:31:22.975Z,5.63
2023-01-30T22:33:53.484Z,4.10
2023-01-30T22:36:22.530Z,12.35
2023-01-30T22:38:50.521Z,12.30
2023-01-30T22:41:19.691Z,14.23
2023-01-30T22:43:49.087Z,5.82
2023-01-30T22:46:17.902Z,16.50
2023-01-30T22:48:44.898Z,11.73
2023-01-30T22:51:20.210Z,7.47
2023-01-30T22:53:49.301Z,10.73
2023-01-30T22:56:18.792Z,8.35
2023-01-30T22:58:47.361Z,6.05
2023-01-30T23:01:23.215Z,13.43
2023-01-30T23:03:58.187Z,10.15
2023-01-30T23:06:25.469Z,9.98
2023-01-30T23:08:53.744Z,9.05
2023-01-30T23:11:22.245Z,8.32
2023-01-30T23:13:51.197Z,10.60
2023-01-30T23:16:20.788Z,10.13
2023-01-30T23:18:58.188Z,8.07
2023-01-30T23:21:29.444Z,4.38
2023-01-30T23:23:58.849Z,8.63
2023-01-30T23:26:31.111Z,12.07
2023-01-30T23:28:58.643Z,7.03
2023-01-30T23:31:27.231Z,11.18
2023-01-30T23:33:55.734Z,9.95
2023-01-30T23:36:23.061Z,17.70
2023-01-30T23:38:51.044Z,6.72
2023-01-30T23:41:26.409Z,7.90
2023-01-30T23:46:23.966Z,9.00
2023-01-30T23:48:53.482Z,11.55
2023-01-30T23:51:23.356Z,12.20
2023-01-30T23:53:51.425Z,6.85
2023-01-30T23:56:19.408Z,10.90
2023-01-30T23:58:46.677Z,12.38
